KWRL/WRL METAR and TAF weather

Enter ICAO airport designator
Station Type Date Time Source
KWRL METAR 2020/01/20 21:53 UTC NOAA

KWRL 202153Z AUTO 14010KT 10SM CLR 06/M07 A3014 RMK AO2 SLP249 T00611072


Station Type Date Time Source
KWRL Decoded METAR 2020/01/20 21:53 UTC NOAA

WORLAND MUNICIPAL AIRPORT, WY, United States (KWRL) 43-58N 107-57W 1271M
Jan 20, 2020 - 04:53 PM EST / 2020.01.20 2153 UTC
Wind: from the SE (140 degrees) at 12 MPH (10 KT):0
Visibility: 10 mile(s):0
Sky conditions: clear
Temperature: 43.0 F (6.1 C)
Dew Point: 19.0 F (-7.2 C)
Relative Humidity: 37%
Pressure (altimeter): 30.14 in. Hg (1020 hPa)
ob: KWRL 202153Z AUTO 14010KT 10SM CLR 06/M07 A3014 RMK AO2 SLP249 T00611072
cycle: 22

Station Type Date Time Source
KWRL TAF 2020/01/20 18:22 UTC NOAA

TAF KWRL 201720Z 2018/2118 VRB03KT P6SM SCT100 BKN200

Example: see airport list